Time;durP1;ratioP1;P1;durP2;ratioP2;P2;SDS_P1;SDS_P2;PMS_P1;PMS_P2;Temp;Humidity;BMP_temperature;BMP_pressure;BME280_temperature;BME280_humidity;BME280_pressure;Samples;Min_cycle;Max_cycle;Signal;HPM_P1;HPM_P2
2022/11/15 00:01:47;;;;;;;;;;;;;;;8.32;100.00;100930.03;6309350;22;20036;-84
2022/11/15 00:04:31;;;;;;;;;;;;;;;8.44;100.00;100928.13;6309251;22;20001;-87
2022/11/15 00:07:15;;;;;;;;;;;;;;;8.35;100.00;100929.78;6311263;22;19917;-85
2022/11/15 00:09:59;;;;;;;;;;;;;;;8.30;100.00;100921.44;6311926;22;19918;-86
2022/11/15 00:12:43;;;;;;;;;;;;;;;8.14;100.00;100929.03;6311704;22;19995;-85
2022/11/15 00:15:27;;;;;;;;;;;;;;;8.07;100.00;100933.16;6311423;22;19922;-85
2022/11/15 00:18:14;;;;;;;;;;;;;;;7.94;100.00;100922.88;6311409;22;19918;-86
2022/11/15 00:21:06;;;;;;;;;;;;;;;8.01;100.00;100923.16;6311348;22;20257;-81
2022/11/15 00:23:50;;;;;;;;;;;;;;;7.87;100.00;100915.63;6310971;22;20051;-83
2022/11/15 00:26:34;;;;;;;;;;;;;;;7.75;100.00;100914.91;6311753;22;19933;-85
2022/11/15 00:29:18;;;;;;;;;;;;;;;7.54;100.00;100922.03;6311488;22;19922;-84
2022/11/15 00:32:01;;;;;;;;;;;;;;;7.41;100.00;100917.00;6311384;22;19918;-86
2022/11/15 00:34:45;;;;;;;;;;;;;;;7.53;100.00;100910.66;6311754;22;19917;-80
2022/11/15 00:37:29;;;;;;;;;;;;;;;7.78;100.00;100923.38;6311517;22;20402;-85
2022/11/15 00:40:14;;;;;;;;;;;;;;;7.54;100.00;100920.25;6311638;22;19918;-80
2022/11/15 00:42:58;;;;;;;;;;;;;;;7.78;100.00;100926.03;6311159;22;20458;-83
2022/11/15 00:45:42;;;;;;;;;;;;;;;7.74;100.00;100919.34;6311913;22;19961;-84
2022/11/15 00:48:26;;;;;;;;;;;;;;;7.77;100.00;100908.53;6310848;22;19918;-80
2022/11/15 00:51:10;;;;;;;;;;;;;;;7.58;100.00;100908.47;6310742;22;20242;-83
2022/11/15 00:53:54;;;;;;;;;;;;;;;7.50;100.00;100910.91;6311164;22;20037;-85
2022/11/15 00:56:37;;;;;;;;;;;;;;;7.56;100.00;100912.19;6319906;22;19909;-82
2022/11/15 00:59:21;;;;;;;;;;;;;;;7.64;100.00;100907.09;6332460;22;19909;-82
2022/11/15 01:02:05;;;;;;;;;;;;;;;7.82;100.00;100904.66;6288829;22;20028;-81
2022/11/15 01:04:49;;;;;;;;;;;;;;;7.80;100.00;100905.59;6311238;22;20241;-84
2022/11/15 01:07:33;;;;;;;;;;;;;;;8.01;100.00;100899.41;6311059;22;20364;-85
2022/11/15 01:10:17;;;;;;;;;;;;;;;8.13;100.00;100890.38;6311207;22;20002;-86
2022/11/15 01:13:01;;;;;;;;;;;;;;;8.12;100.00;100896.66;6310976;22;19929;-82
2022/11/15 01:15:45;;;;;;;;;;;;;;;8.11;100.00;100885.25;6311203;22;20261;-83
2022/11/15 01:18:29;;;;;;;;;;;;;;;7.98;100.00;100889.13;6310802;22;19918;-83
2022/11/15 01:21:15;;;;;;;;;;;;;;;7.99;100.00;100888.13;6311206;22;20245;-84
2022/11/15 01:23:59;;;;;;;;;;;;;;;7.89;100.00;100888.13;6287573;22;19917;-83
2022/11/15 01:26:43;;;;;;;;;;;;;;;7.94;100.00;100893.00;6311016;22;19918;-80
2022/11/15 01:29:27;;;;;;;;;;;;;;;7.84;100.00;100892.16;6310693;22;19934;-84
2022/11/15 01:32:10;;;;;;;;;;;;;;;7.70;100.00;100890.72;6311155;22;19918;-83
2022/11/15 01:34:54;;;;;;;;;;;;;;;7.84;100.00;100871.88;6310794;22;19921;-85
2022/11/15 01:37:38;;;;;;;;;;;;;;;7.71;100.00;100874.75;6310752;22;20036;-82
2022/11/15 01:40:22;;;;;;;;;;;;;;;7.82;100.00;100865.06;6311206;22;20011;-82
2022/11/15 01:43:20;;;;;;;;;;;;;;;8.07;100.00;100860.09;6311168;22;19937;-84
2022/11/15 01:46:05;;;;;;;;;;;;;;;7.72;100.00;100871.13;6310847;22;20456;-80
2022/11/15 01:48:50;;;;;;;;;;;;;;;7.61;100.00;100868.63;6311409;22;19963;-83
2022/11/15 01:51:34;;;;;;;;;;;;;;;7.48;100.00;100862.75;6310398;22;20109;-83
2022/11/15 01:54:21;;;;;;;;;;;;;;;7.50;100.00;100859.97;6310791;22;20303;-83
2022/11/15 01:57:07;;;;;;;;;;;;;;;7.69;100.00;100854.75;6310766;22;19922;-82
2022/11/15 01:59:51;;;;;;;;;;;;;;;7.89;100.00;100858.28;6309980;22;20284;-84
2022/11/15 02:02:36;;;;;;;;;;;;;;;7.93;100.00;100849.94;6310575;22;19967;-81
2022/11/15 02:05:20;;;;;;;;;;;;;;;7.96;100.00;100846.19;6310672;22;19933;-81
2022/11/15 02:08:03;;;;;;;;;;;;;;;8.09;100.00;100841.47;6310504;22;19969;-83
2022/11/15 02:10:48;;;;;;;;;;;;;;;8.24;100.00;100821.63;6310373;22;19918;-83
2022/11/15 02:13:32;;;;;;;;;;;;;;;8.09;100.00;100828.25;6310279;22;19934;-82
2022/11/15 02:16:25;;;;;;;;;;;;;;;8.20;100.00;100814.94;6311440;22;19922;-81
2022/11/15 02:19:28;;;;;;;;;;;;;;;8.05;100.00;100800.50;6310897;22;20313;-82
2022/11/15 02:22:21;;;;;;;;;;;;;;;7.93;100.00;100797.16;6310702;22;20002;-79
2022/11/15 02:25:24;;;;;;;;;;;;;;;7.94;100.00;100790.91;6310709;22;19921;-80
2022/11/15 02:28:26;;;;;;;;;;;;;;;7.94;100.00;100792.72;6310510;22;20003;-81
2022/11/15 02:31:10;;;;;;;;;;;;;;;8.06;100.00;100804.78;6310299;22;19918;-81
2022/11/15 02:34:13;;;;;;;;;;;;;;;8.06;100.00;100804.78;6310279;22;19921;-84
2022/11/15 02:37:00;;;;;;;;;;;;;;;8.07;100.00;100803.81;6310326;22;19945;-79
2022/11/15 02:39:44;;;;;;;;;;;;;;;8.34;100.00;100792.59;6310019;22;19964;-80
2022/11/15 02:45:54;;;;;;;;;;;;;;;8.06;100.00;100799.50;6310315;22;19976;-82
2022/11/15 02:48:39;;;;;;;;;;;;;;;8.12;100.00;100810.34;6309556;22;19918;-80
2022/11/15 02:51:23;;;;;;;;;;;;;;;8.26;100.00;100809.94;6287038;22;19933;-80
2022/11/15 02:54:11;;;;;;;;;;;;;;;8.13;100.00;100795.34;6310246;22;19955;-84
2022/11/15 02:56:58;;;;;;;;;;;;;;;7.98;100.00;100788.84;6309644;22;19922;-80
2022/11/15 02:59:42;;;;;;;;;;;;;;;7.84;100.00;100797.16;6309637;22;19933;-79
2022/11/15 03:02:49;;;;;;;;;;;;;;;8.08;100.00;100790.50;6309794;22;19918;-81
2022/11/15 03:05:51;;;;;;;;;;;;;;;8.36;100.00;100783.53;6309510;22;19964;-86
2022/11/15 03:09:11;;;;;;;;;;;;;;;8.38;100.00;100797.47;6309778;22;20206;-86
2022/11/15 03:12:07;;;;;;;;;;;;;;;8.15;100.00;100794.22;6184461;23;19985;-83
2022/11/15 03:14:57;;;;;;;;;;;;;;;8.11;100.00;100787.59;6311587;22;20005;-83
2022/11/15 03:17:53;;;;;;;;;;;;;;;8.15;100.00;100780.22;6310222;22;19964;-82
2022/11/15 03:20:37;;;;;;;;;;;;;;;8.32;100.00;100776.88;6309811;22;19918;-81
2022/11/15 03:23:20;;;;;;;;;;;;;;;8.52;100.00;100783.78;6309909;22;20020;-85
2022/11/15 03:26:07;;;;;;;;;;;;;;;8.69;100.00;100793.63;6309999;22;19990;-82
2022/11/15 03:29:00;;;;;;;;;;;;;;;8.49;100.00;100783.25;6309731;22;19964;-83
2022/11/15 03:31:47;;;;;;;;;;;;;;;8.41;100.00;100768.13;6309413;22;19933;-83
2022/11/15 03:34:34;;;;;;;;;;;;;;;8.55;100.00;100772.13;6309644;22;19973;-82
2022/11/15 03:37:20;;;;;;;;;;;;;;;8.41;100.00;100773.41;6309909;22;19933;-81
2022/11/15 03:40:04;;;;;;;;;;;;;;;8.46;100.00;100772.97;6310120;22;19921;-84
2022/11/15 03:42:57;;;;;;;;;;;;;;;8.46;100.00;100776.44;6315088;22;19956;-81
2022/11/15 03:45:49;;;;;;;;;;;;;;;8.75;100.00;100785.13;6312195;22;19925;-82
2022/11/15 03:48:36;;;;;;;;;;;;;;;8.69;100.00;100790.16;6310146;22;19986;-82
2022/11/15 03:51:20;;;;;;;;;;;;;;;8.83;100.00;100787.88;6310043;22;19937;-83
2022/11/15 03:54:04;;;;;;;;;;;;;;;8.76;100.00;100784.16;6310019;22;19917;-81
2022/11/15 03:56:48;;;;;;;;;;;;;;;8.57;100.00;100786.84;6314484;22;19918;-83
2022/11/15 03:59:32;;;;;;;;;;;;;;;8.71;100.00;100789.03;6310009;22;19922;-79
2022/11/15 04:02:16;;;;;;;;;;;;;;;8.79;100.00;100785.66;6286759;22;20002;-80
2022/11/15 04:05:00;;;;;;;;;;;;;;;8.83;100.00;100787.88;6313608;22;19988;-84
2022/11/15 04:07:44;;;;;;;;;;;;;;;8.73;100.00;100780.97;6315812;22;19918;-82
2022/11/15 04:10:28;;;;;;;;;;;;;;;8.41;100.00;100776.03;6310513;22;19921;-83
2022/11/15 04:13:12;;;;;;;;;;;;;;;8.24;100.00;100782.00;6311603;22;19955;-82
2022/11/15 04:15:55;;;;;;;;;;;;;;;8.20;100.00;100777.97;6311615;22;19961;-84
2022/11/15 04:18:39;;;;;;;;;;;;;;;8.27;100.00;100768.53;6310842;22;19933;-79
2022/11/15 04:24:27;;;;;;;;;;;;;;;8.72;100.00;100753.69;6310409;22;19918;-81
2022/11/15 04:27:12;;;;;;;;;;;;;;;8.91;100.00;100759.91;6310234;22;19957;-80
2022/11/15 04:29:57;;;;;;;;;;;;;;;8.98;100.00;100764.44;6287065;22;19933;-82
2022/11/15 04:32:41;;;;;;;;;;;;;;;9.00;100.00;100761.66;6310176;22;19956;-80
2022/11/15 04:35:25;;;;;;;;;;;;;;;8.94;100.00;100755.16;6310044;22;19922;-84
2022/11/15 04:38:10;;;;;;;;;;;;;;;8.91;100.00;100751.97;6310516;22;19918;-80
2022/11/15 04:40:54;;;;;;;;;;;;;;;8.90;100.00;100745.00;6309675;22;20233;-84
2022/11/15 04:43:38;;;;;;;;;;;;;;;9.03;100.00;100727.84;6309840;22;19957;-81
2022/11/15 04:46:23;;;;;;;;;;;;;;;9.27;100.00;100725.50;6309801;22;20388;-81
2022/11/15 04:49:07;;;;;;;;;;;;;;;9.40;100.00;100730.41;6310609;22;19956;-82
2022/11/15 04:51:51;;;;;;;;;;;;;;;9.55;100.00;100730.72;6310724;22;19917;-83
2022/11/15 04:54:35;;;;;;;;;;;;;;;9.49;100.00;100726.03;6312903;22;20366;-82
2022/11/15 04:57:19;;;;;;;;;;;;;;;9.33;100.00;100727.53;6312131;22;19917;-84
2022/11/15 05:00:07;;;;;;;;;;;;;;;9.20;100.00;100731.50;6311920;22;19973;-83
2022/11/15 05:05:54;;;;;;;;;;;;;;;9.23;100.00;100734.69;6312007;22;19917;-82
2022/11/15 05:08:38;;;;;;;;;;;;;;;9.34;100.00;100723.91;6311849;22;19956;-84
2022/11/15 05:11:22;;;;;;;;;;;;;;;9.40;100.00;100733.06;6312411;22;20000;-82
2022/11/15 05:14:06;;;;;;;;;;;;;;;9.37;100.00;100722.78;6312880;22;19975;-82
2022/11/15 05:16:50;;;;;;;;;;;;;;;9.28;100.00;100718.34;6311845;22;19918;-81
2022/11/15 05:19:34;;;;;;;;;;;;;;;9.18;100.00;100717.63;6311652;22;19991;-82
2022/11/15 05:22:18;;;;;;;;;;;;;;;9.14;100.00;100725.00;6312704;22;19978;-82
2022/11/15 05:25:03;;;;;;;;;;;;;;;9.28;100.00;100713.06;6312174;22;19992;-80
2022/11/15 05:27:47;;;;;;;;;;;;;;;9.26;100.00;100715.03;6311624;22;19917;-82
2022/11/15 05:30:31;;;;;;;;;;;;;;;9.12;100.00;100726.13;6311599;22;19933;-82
2022/11/15 05:33:15;;;;;;;;;;;;;;;9.20;100.00;100720.94;6316832;22;19914;-82
2022/11/15 05:36:09;;;;;;;;;;;;;;;9.41;100.00;100724.16;6312840;22;20385;-81
2022/11/15 05:38:53;;;;;;;;;;;;;;;9.37;100.00;100721.94;6314759;22;19941;-83
2022/11/15 05:41:47;;;;;;;;;;;;;;;9.21;100.00;100730.53;6335797;22;19953;-85
2022/11/15 05:44:31;;;;;;;;;;;;;;;9.37;100.00;100720.13;6311376;22;19921;-83
2022/11/15 05:47:24;;;;;;;;;;;;;;;9.44;100.00;100723.84;6288040;22;19957;-86
2022/11/15 05:50:10;;;;;;;;;;;;;;;9.51;100.00;100735.47;6312416;22;19922;-88
2022/11/15 05:52:55;;;;;;;;;;;;;;;9.49;100.00;100726.84;6309853;22;20414;-82
2022/11/15 05:55:39;;;;;;;;;;;;;;;9.45;100.00;100730.78;6310570;22;19918;-84
2022/11/15 05:58:23;;;;;;;;;;;;;;;9.42;100.00;100724.94;6311641;22;20309;-84
2022/11/15 06:01:07;;;;;;;;;;;;;;;9.47;100.00;100723.53;6310594;22;20304;-83
2022/11/15 06:03:51;;;;;;;;;;;;;;;9.57;100.00;100723.47;6309904;22;19922;-84
2022/11/15 06:06:35;;;;;;;;;;;;;;;9.65;100.00;100721.72;6313060;22;19930;-82
2022/11/15 06:09:19;;;;;;;;;;;;;;;9.60;100.00;100720.53;6302833;22;19937;-84
2022/11/15 06:12:03;;;;;;;;;;;;;;;9.50;100.00;100717.13;6304947;22;20007;-86
2022/11/15 06:14:47;;;;;;;;;;;;;;;9.48;100.00;100714.59;6327371;22;19917;-85
2022/11/15 06:17:31;;;;;;;;;;;;;;;9.38;100.00;100716.47;6325205;22;19917;-83
2022/11/15 06:20:15;;;;;;;;;;;;;;;9.46;100.00;100711.28;6318529;22;19918;-84
2022/11/15 06:22:59;;;;;;;;;;;;;;;9.61;100.00;100717.72;6323473;22;19968;-84
2022/11/15 06:25:43;;;;;;;;;;;;;;;9.40;100.00;100716.34;6299801;22;19945;-86
2022/11/15 06:28:31;;;;;;;;;;;;;;;9.17;100.00;100723.88;6326913;22;19956;-88
2022/11/15 06:31:15;;;;;;;;;;;;;;;8.99;100.00;100712.41;6299373;22;19944;-85
2022/11/15 06:33:59;;;;;;;;;;;;;;;8.91;100.00;100715.81;6326271;22;20250;-84
2022/11/15 06:36:43;;;;;;;;;;;;;;;8.97;100.00;100720.50;6324886;22;19960;-87
2022/11/15 06:39:27;;;;;;;;;;;;;;;8.88;100.00;100731.97;6323809;22;19957;-87
2022/11/15 06:42:11;;;;;;;;;;;;;;;8.82;100.00;100728.06;6324853;22;20242;-87
2022/11/15 06:44:55;;;;;;;;;;;;;;;8.77;100.00;100729.50;6327790;22;19922;-85
2022/11/15 06:47:46;;;;;;;;;;;;;;;8.78;100.00;100725.88;6323645;22;19918;-83
2022/11/15 06:50:30;;;;;;;;;;;;;;;8.85;100.00;100732.22;6326180;22;19961;-86
2022/11/15 06:53:14;;;;;;;;;;;;;;;8.81;100.00;100737.00;6319515;22;19917;-86
2022/11/15 06:56:02;;;;;;;;;;;;;;;8.72;100.00;100734.38;6296540;22;20254;-87
2022/11/15 06:58:46;;;;;;;;;;;;;;;8.69;100.00;100735.50;6328859;22;19955;-85
2022/11/15 07:01:33;;;;;;;;;;;;;;;8.92;100.00;100743.88;6336061;22;19937;-88
2022/11/15 07:04:18;;;;;;;;;;;;;;;8.85;100.00;100734.06;6336060;22;19906;-88
2022/11/15 07:07:02;;;;;;;;;;;;;;;8.91;100.00;100731.66;6313766;22;19918;-82
2022/11/15 07:09:46;;;;;;;;;;;;;;;8.84;100.00;100741.16;6333026;22;19905;-88
2022/11/15 07:12:30;;;;;;;;;;;;;;;8.91;100.00;100736.13;6332663;22;19921;-85
2022/11/15 07:15:15;;;;;;;;;;;;;;;8.97;100.00;100738.16;6326672;22;19918;-87
2022/11/15 07:18:02;;;;;;;;;;;;;;;8.83;100.00;100739.47;6330046;22;19917;-83
2022/11/15 07:20:46;;;;;;;;;;;;;;;8.89;100.00;100743.34;6331628;22;19973;-85
2022/11/15 07:23:30;;;;;;;;;;;;;;;8.87;100.00;100742.66;6331609;22;19932;-87
2022/11/15 07:26:15;;;;;;;;;;;;;;;9.03;100.00;100741.06;6326467;22;19937;-87
2022/11/15 07:28:59;;;;;;;;;;;;;;;9.01;100.00;100736.91;6311326;22;19944;-84
2022/11/15 07:31:43;;;;;;;;;;;;;;;8.87;100.00;100735.56;6284649;22;19918;-83
2022/11/15 07:34:26;;;;;;;;;;;;;;;8.89;100.00;100733.59;6308372;22;20292;-85
2022/11/15 07:37:10;;;;;;;;;;;;;;;9.11;100.00;100735.88;6308406;22;19933;-84
2022/11/15 07:39:54;;;;;;;;;;;;;;;9.02;100.00;100735.91;6308592;22;20419;-83
2022/11/15 07:42:53;;;;;;;;;;;;;;;9.03;100.00;100734.94;6308020;22;19921;-84
2022/11/15 07:45:44;;;;;;;;;;;;;;;9.11;100.00;100727.13;6308159;22;20226;-84
2022/11/15 07:48:29;;;;;;;;;;;;;;;8.97;100.00;100727.59;6314867;22;20020;-85
2022/11/15 07:51:14;;;;;;;;;;;;;;;9.05;100.00;100733.81;6310526;22;19918;-84
2022/11/15 07:53:57;;;;;;;;;;;;;;;9.08;100.00;100730.06;6308091;22;19934;-85
2022/11/15 07:56:41;;;;;;;;;;;;;;;9.05;100.00;100722.41;6307949;22;19918;-82
2022/11/15 07:59:25;;;;;;;;;;;;;;;9.14;100.00;100734.75;6308527;22;19968;-83
2022/11/15 08:02:09;;;;;;;;;;;;;;;9.15;100.00;100731.09;6308300;22;19921;-84
2022/11/15 08:04:53;;;;;;;;;;;;;;;9.22;100.00;100726.88;6308158;22;19957;-83
2022/11/15 08:07:37;;;;;;;;;;;;;;;9.28;100.00;100728.94;6307902;22;19965;-83
2022/11/15 08:10:21;;;;;;;;;;;;;;;9.20;100.00;100731.50;6308724;22;19917;-83
2022/11/15 08:13:09;;;;;;;;;;;;;;;9.18;100.00;100723.72;6307963;22;19975;-83
2022/11/15 08:16:00;;;;;;;;;;;;;;;9.17;100.00;100714.13;6308248;22;19964;-86
2022/11/15 08:18:44;;;;;;;;;;;;;;;9.14;100.00;100711.78;6308048;22;19917;-85
2022/11/15 08:21:28;;;;;;;;;;;;;;;9.30;100.00;100716.41;6307778;22;19917;-82
2022/11/15 08:24:12;;;;;;;;;;;;;;;9.44;100.00;100718.56;6307700;22;19953;-85
2022/11/15 08:26:56;;;;;;;;;;;;;;;9.47;100.00;100712.13;6284802;22;19964;-82
2022/11/15 08:29:44;;;;;;;;;;;;;;;9.69;100.00;100712.50;6309507;22;19941;-84
2022/11/15 08:32:28;;;;;;;;;;;;;;;9.80;100.00;100720.22;6310083;22;19933;-83
2022/11/15 08:35:11;;;;;;;;;;;;;;;9.70;100.00;100714.19;6310195;22;19957;-85
2022/11/15 08:37:55;;;;;;;;;;;;;;;9.63;100.00;100712.28;6309591;22;19917;-84
2022/11/15 08:40:39;;;;;;;;;;;;;;;9.58;100.00;100719.84;6309296;22;19922;-83
2022/11/15 08:43:23;;;;;;;;;;;;;;;9.69;100.00;100706.38;6310070;22;20246;-84
2022/11/15 08:46:10;;;;;;;;;;;;;;;9.75;100.00;100711.88;6286630;22;19918;-82
2022/11/15 08:48:54;;;;;;;;;;;;;;;9.83;100.00;100709.31;6310796;22;19975;-83
2022/11/15 08:51:38;;;;;;;;;;;;;;;9.69;100.00;100707.22;6320613;22;20372;-81
2022/11/15 08:54:22;;;;;;;;;;;;;;;9.73;100.00;100711.22;6321225;22;19959;-82
2022/11/15 08:57:06;;;;;;;;;;;;;;;9.78;100.00;100703.63;6310728;22;19917;-84
2022/11/15 08:59:50;;;;;;;;;;;;;;;9.88;100.00;100715.97;6310179;22;19998;-83
2022/11/15 09:02:34;;;;;;;;;;;;;;;9.72;100.00;100709.56;6310499;22;19917;-81
2022/11/15 09:05:18;;;;;;;;;;;;;;;9.71;100.00;100707.88;6309739;22;20345;-83
2022/11/15 09:08:02;;;;;;;;;;;;;;;9.67;100.00;100698.59;6309513;22;20348;-85
2022/11/15 09:10:46;;;;;;;;;;;;;;;9.56;100.00;100705.91;6309424;22;19918;-84
2022/11/15 09:13:30;;;;;;;;;;;;;;;9.52;100.00;100700.09;6309417;22;19918;-83
2022/11/15 09:16:15;;;;;;;;;;;;;;;9.62;100.00;100700.84;6309331;22;19934;-82
2022/11/15 09:18:58;;;;;;;;;;;;;;;9.83;100.00;100701.38;6309194;22;19922;-84
2022/11/15 09:21:42;;;;;;;;;;;;;;;9.72;100.00;100703.41;6309301;22;19933;-83
2022/11/15 09:24:26;;;;;;;;;;;;;;;9.76;100.00;100700.34;6309066;22;19918;-83
2022/11/15 09:27:10;;;;;;;;;;;;;;;9.94;100.00;100688.91;6308986;22;20297;-82
2022/11/15 09:29:54;;;;;;;;;;;;;;;9.94;100.00;100704.78;6309376;22;19968;-82
2022/11/15 09:32:38;;;;;;;;;;;;;;;9.84;100.00;100695.09;6309143;22;19918;-83
2022/11/15 09:35:22;;;;;;;;;;;;;;;9.83;100.00;100688.16;6308816;22;19938;-83
2022/11/15 09:38:06;;;;;;;;;;;;;;;9.88;100.00;100695.63;6309015;22;19917;-83
2022/11/15 09:40:53;;;;;;;;;;;;;;;10.11;100.00;100682.75;6308767;22;19934;-83
2022/11/15 09:43:54;;;;;;;;;;;;;;;10.08;100.00;100685.66;6309159;22;19964;-82
2022/11/15 09:46:56;;;;;;;;;;;;;;;9.92;100.00;100688.19;6309327;22;19956;-84
2022/11/15 09:49:51;;;;;;;;;;;;;;;9.91;100.00;100689.19;6282400;22;20352;-83
2022/11/15 09:52:24;;;;;;;;;;;;;;;9.89;100.00;100692.00;6311073;22;20295;-83
2022/11/15 09:54:51;;;;;;;;;;;;;;;9.82;100.00;100691.78;6283185;22;19934;-83
2022/11/15 09:57:20;;;;;;;;;;;;;;;9.84;100.00;100684.50;6311026;22;20000;-83
2022/11/15 09:59:45;;;;;;;;;;;;;;;10.16;100.00;100685.78;6312669;22;19915;-83
2022/11/15 10:02:23;;;;;;;;;;;;;;;10.12;100.00;100682.56;6310260;22;19911;-83
2022/11/15 10:04:49;;;;;;;;;;;;;;;10.02;100.00;100675.69;6309735;22;19986;-83
2022/11/15 10:07:32;;;;;;;;;;;;;;;10.12;100.00;100673.78;6308758;22;19942;-83
2022/11/15 10:10:04;;;;;;;;;;;;;;;10.24;100.00;100675.25;6308530;22;20345;-84
2022/11/15 10:12:30;;;;;;;;;;;;;;;10.25;100.00;100671.59;6308965;22;19986;-85
2022/11/15 10:15:00;;;;;;;;;;;;;;;10.26;100.00;100663.50;6311541;22;19906;-82
2022/11/15 10:17:45;;;;;;;;;;;;;;;10.24;100.00;100660.16;6280883;22;19985;-84
2022/11/15 10:20:13;;;;;;;;;;;;;;;10.24;100.00;100654.06;6308115;22;19998;-84
2022/11/15 10:22:59;;;;;;;;;;;;;;;10.42;100.00;100652.16;6280819;22;19910;-87
2022/11/15 10:25:26;;;;;;;;;;;;;;;10.42;100.00;100646.84;6307385;22;19964;-82
2022/11/15 10:28:06;;;;;;;;;;;;;;;10.53;100.00;100638.63;6307924;22;19970;-82
2022/11/15 10:30:38;;;;;;;;;;;;;;;10.46;100.00;100637.59;6309389;22;20238;-83
2022/11/15 10:33:13;;;;;;;;;;;;;;;10.58;100.00;100624.88;6312263;22;19911;-83
2022/11/15 10:35:42;;;;;;;;;;;;;;;10.45;100.00;100622.69;6307871;22;20243;-82
2022/11/15 10:38:09;;;;;;;;;;;;;;;10.43;100.00;100627.31;6280291;22;19906;-82
2022/11/15 10:40:35;;;;;;;;;;;;;;;10.48;100.00;100627.66;6308164;22;19911;-82
2022/11/15 10:43:05;;;;;;;;;;;;;;;10.59;100.00;100626.56;6308152;22;19917;-80
2022/11/15 10:45:31;;;;;;;;;;;;;;;10.54;100.00;100624.38;6307762;22;19918;-82
2022/11/15 10:48:26;;;;;;;;;;;;;;;10.50;100.00;100620.41;6307933;22;19918;-81
2022/11/15 10:50:53;;;;;;;;;;;;;;;10.54;100.00;100607.66;6281205;22;20294;-82
2022/11/15 10:53:23;;;;;;;;;;;;;;;10.36;100.00;100608.59;6307959;22;19911;-82
2022/11/15 10:55:51;;;;;;;;;;;;;;;10.37;100.00;100601.47;6306999;22;19942;-83
2022/11/15 10:58:39;;;;;;;;;;;;;;;10.37;100.00;100599.63;6307545;22;19938;-84
2022/11/15 11:01:16;;;;;;;;;;;;;;;10.34;100.00;100596.50;6267877;22;19910;-84
2022/11/15 11:03:42;;;;;;;;;;;;;;;10.32;100.00;100594.00;6307621;22;20226;-83
2022/11/15 11:06:07;;;;;;;;;;;;;;;10.32;100.00;100586.03;6280103;22;19910;-82
2022/11/15 11:08:33;;;;;;;;;;;;;;;10.40;100.00;100592.38;6307861;22;19906;-83
2022/11/15 11:11:00;;;;;;;;;;;;;;;10.34;100.00;100577.94;6307407;22;19915;-84
2022/11/15 11:13:27;;;;;;;;;;;;;;;10.44;100.00;100580.47;6307547;22;19987;-83
2022/11/15 11:15:59;;;;;;;;;;;;;;;10.51;100.00;100579.66;6307599;22;20329;-82
2022/11/15 11:18:28;;;;;;;;;;;;;;;10.53;100.00;100572.38;6307964;22;19911;-83
2022/11/15 11:21:02;;;;;;;;;;;;;;;10.63;100.00;100567.78;6307561;22;19961;-84
2022/11/15 11:23:31;;;;;;;;;;;;;;;10.57;100.00;100559.66;6307836;22;19963;-84
2022/11/15 11:26:04;;;;;;;;;;;;;;;10.67;100.00;100553.19;6307872;22;19914;-83
2022/11/15 11:28:51;;;;;;;;;;;;;;;10.58;100.00;100551.53;6307582;22;19937;-83
2022/11/15 11:31:35;;;;;;;;;;;;;;;10.57;100.00;100544.53;6280397;22;19913;-83
2022/11/15 11:34:09;;;;;;;;;;;;;;;10.72;100.00;100540.31;6307821;22;19910;-83
2022/11/15 11:36:50;;;;;;;;;;;;;;;10.64;100.00;100550.88;6281007;22;19989;-83
2022/11/15 11:39:31;;;;;;;;;;;;;;;10.70;100.00;100544.09;6308037;22;19953;-83
2022/11/15 11:42:14;;;;;;;;;;;;;;;10.63;100.00;100543.09;6308180;22;19942;-83
2022/11/15 11:44:59;;;;;;;;;;;;;;;10.65;100.00;100541.94;6307960;22;19982;-85
2022/11/15 11:47:35;;;;;;;;;;;;;;;10.83;100.00;100545.31;6308296;22;19918;-85
2022/11/15 11:50:10;;;;;;;;;;;;;;;10.66;100.00;100538.31;6280971;22;20272;-84
2022/11/15 11:52:45;;;;;;;;;;;;;;;10.69;100.00;100530.03;6280654;22;19907;-85
2022/11/15 11:55:20;;;;;;;;;;;;;;;10.60;100.00;100533.66;6281207;22;19917;-83
2022/11/15 11:57:45;;;;;;;;;;;;;;;10.55;100.00;100525.34;6307868;22;20038;-84
2022/11/15 12:00:17;;;;;;;;;;;;;;;10.48;100.00;100534.94;6307879;22;19969;-84
2022/11/15 12:02:54;;;;;;;;;;;;;;;10.32;100.00;100527.75;6309315;22;19946;-84
2022/11/15 12:05:28;;;;;;;;;;;;;;;10.26;100.00;100523.09;6310056;22;19914;-84
2022/11/15 12:07:59;;;;;;;;;;;;;;;10.36;100.00;100521.16;6309975;22;19989;-85
2022/11/15 12:10:28;;;;;;;;;;;;;;;10.38;100.00;100513.03;6310343;22;19910;-83
2022/11/15 12:12:58;;;;;;;;;;;;;;;10.44;100.00;100517.69;6310599;22;20335;-83
2022/11/15 12:15:32;;;;;;;;;;;;;;;10.49;100.00;100514.56;6310068;22;19964;-83
2022/11/15 12:18:00;;;;;;;;;;;;;;;10.47;100.00;100506.78;6309852;22;19918;-84
2022/11/15 12:20:28;;;;;;;;;;;;;;;10.47;100.00;100511.25;6309649;22;19911;-85
2022/11/15 12:22:56;;;;;;;;;;;;;;;10.50;100.00;100506.47;6309781;22;20211;-82
2022/11/15 12:25:24;;;;;;;;;;;;;;;10.60;100.00;100496.56;6310313;22;19914;-84
2022/11/15 12:27:53;;;;;;;;;;;;;;;10.60;100.00;100496.56;6309689;22;19911;-84
2022/11/15 12:30:20;;;;;;;;;;;;;;;10.70;100.00;100485.78;6310170;22;19910;-84
2022/11/15 12:32:56;;;;;;;;;;;;;;;10.93;100.00;100488.63;6309629;22;20278;-83
2022/11/15 12:35:36;;;;;;;;;;;;;;;10.75;100.00;100484.31;6309756;22;19942;-84
2022/11/15 12:38:02;;;;;;;;;;;;;;;10.65;100.00;100478.31;6282421;22;19917;-84
2022/11/15 12:40:28;;;;;;;;;;;;;;;10.55;100.00;100466.22;6309560;22;19946;-84
2022/11/15 12:42:58;;;;;;;;;;;;;;;10.55;100.00;100463.56;6314792;22;19910;-84
2022/11/15 12:45:25;;;;;;;;;;;;;;;10.48;100.00;100459.91;6309525;22;19931;-83
2022/11/15 12:47:51;;;;;;;;;;;;;;;10.52;100.00;100446.19;6309709;22;19906;-84
2022/11/15 12:50:39;;;;;;;;;;;;;;;10.39;100.00;100448.47;6309539;22;19910;-84
2022/11/15 12:53:23;;;;;;;;;;;;;;;10.37;100.00;100451.25;6309625;22;19911;-82
2022/11/15 12:56:07;;;;;;;;;;;;;;;10.41;100.00;100454.41;6309623;22;20304;-84
2022/11/15 12:58:46;;;;;;;;;;;;;;;10.36;100.00;100441.69;6309471;22;19914;-84
2022/11/15 13:01:34;;;;;;;;;;;;;;;10.20;100.00;100435.53;6309337;22;19918;-83
2022/11/15 13:04:18;;;;;;;;;;;;;;;10.18;100.00;100426.88;6309281;22;19911;-84
2022/11/15 13:06:47;;;;;;;;;;;;;;;10.27;100.00;100418.78;6309587;22;19911;-85
2022/11/15 13:09:27;;;;;;;;;;;;;;;10.25;100.00;100418.16;6309560;22;20297;-84
2022/11/15 13:11:53;;;;;;;;;;;;;;;10.22;100.00;100415.00;6309627;22;19911;-83
2022/11/15 13:14:37;;;;;;;;;;;;;;;10.13;100.00;100413.28;6309679;22;19922;-83
2022/11/15 13:17:12;;;;;;;;;;;;;;;10.11;100.00;100416.09;6309329;22;20269;-83
2022/11/15 13:19:38;;;;;;;;;;;;;;;10.08;100.00;100415.56;6308949;22;19910;-84
2022/11/15 13:25:18;;;;;;;;;;;;;;;10.21;100.00;100421.25;6215153;23;20274;-83
2022/11/15 13:27:46;;;;;;;;;;;;;;;10.28;100.00;100416.97;6295174;22;20330;-82
2022/11/15 13:30:19;;;;;;;;;;;;;;;10.18;100.00;100413.66;6308942;22;19997;-83
2022/11/15 13:32:44;;;;;;;;;;;;;;;10.13;100.00;100419.41;6309433;22;19918;-85
2022/11/15 13:35:18;;;;;;;;;;;;;;;10.13;100.00;100413.28;6309350;22;19911;-83
2022/11/15 13:37:44;;;;;;;;;;;;;;;10.14;100.00;100409.69;6309378;22;19911;-85
2022/11/15 13:40:15;;;;;;;;;;;;;;;10.11;100.00;100416.09;6253588;22;19918;-84
2022/11/15 13:42:41;;;;;;;;;;;;;;;10.30;100.00;100413.19;6309031;22;19938;-86
2022/11/15 13:45:12;;;;;;;;;;;;;;;10.32;100.00;100410.38;6308636;22;19965;-81
2022/11/15 13:47:38;;;;;;;;;;;;;;;10.32;100.00;100413.03;6308247;22;19917;-86
2022/11/15 13:50:03;;;;;;;;;;;;;;;10.25;100.00;100404.91;6308588;22;19974;-81
2022/11/15 13:52:32;;;;;;;;;;;;;;;10.33;100.00;100404.09;6308618;22;19965;-79
2022/11/15 13:55:09;;;;;;;;;;;;;;;10.34;100.00;100408.41;6308301;22;19915;-86
2022/11/15 13:57:41;;;;;;;;;;;;;;;10.34;100.00;100408.41;6308062;22;19907;-79
2022/11/15 14:00:24;;;;;;;;;;;;;;;10.28;100.00;100406.38;6281247;22;19915;-84